sensor_id;sensor_type;location;lat;lon;timestamp;temperature;humidity
77056;SHT30;67471;44.918;8.614;2024-01-15T00:02:25;4.34;80.86
77056;SHT30;67471;44.918;8.614;2024-01-15T00:05:29;4.42;80.79
77056;SHT30;67471;44.918;8.614;2024-01-15T00:08:33;4.52;80.48
77056;SHT30;67471;44.918;8.614;2024-01-15T00:11:36;4.55;80.48
77056;SHT30;67471;44.918;8.614;2024-01-15T00:14:40;4.60;80.52
77056;SHT30;67471;44.918;8.614;2024-01-15T00:17:44;4.59;80.41
77056;SHT30;67471;44.918;8.614;2024-01-15T00:20:48;4.65;80.56
77056;SHT30;67471;44.918;8.614;2024-01-15T00:23:52;4.70;80.34
77056;SHT30;67471;44.918;8.614;2024-01-15T00:26:56;4.66;80.35
77056;SHT30;67471;44.918;8.614;2024-01-15T00:30:00;4.69;80.15
77056;SHT30;67471;44.918;8.614;2024-01-15T00:33:04;4.69;80.14
77056;SHT30;67471;44.918;8.614;2024-01-15T00:36:08;4.80;79.72
77056;SHT30;67471;44.918;8.614;2024-01-15T00:39:13;4.75;79.82
77056;SHT30;67471;44.918;8.614;2024-01-15T00:42:16;4.75;80.22
77056;SHT30;67471;44.918;8.614;2024-01-15T00:45:20;4.77;80.23
77056;SHT30;67471;44.918;8.614;2024-01-15T00:48:24;4.72;80.56
77056;SHT30;67471;44.918;8.614;2024-01-15T00:51:27;4.81;80.32
77056;SHT30;67471;44.918;8.614;2024-01-15T00:54:31;4.75;80.43
77056;SHT30;67471;44.918;8.614;2024-01-15T00:57:35;4.73;80.57
77056;SHT30;67471;44.918;8.614;2024-01-15T01:00:39;4.62;80.69
77056;SHT30;67471;44.918;8.614;2024-01-15T01:03:43;4.65;80.81
77056;SHT30;67471;44.918;8.614;2024-01-15T01:06:46;4.73;80.70
77056;SHT30;67471;44.918;8.614;2024-01-15T01:09:50;4.76;80.38
77056;SHT30;67471;44.918;8.614;2024-01-15T01:12:54;4.63;80.04
77056;SHT30;67471;44.918;8.614;2024-01-15T01:15:58;4.68;80.36
77056;SHT30;67471;44.918;8.614;2024-01-15T01:19:02;4.77;80.29
77056;SHT30;67471;44.918;8.614;2024-01-15T01:22:05;4.70;80.50
77056;SHT30;67471;44.918;8.614;2024-01-15T01:25:09;4.72;80.67
77056;SHT30;67471;44.918;8.614;2024-01-15T01:28:13;4.69;80.42
77056;SHT30;67471;44.918;8.614;2024-01-15T01:31:17;4.72;80.28
77056;SHT30;67471;44.918;8.614;2024-01-15T01:34:21;4.62;80.81
77056;SHT30;67471;44.918;8.614;2024-01-15T01:37:25;4.75;80.13
77056;SHT30;67471;44.918;8.614;2024-01-15T01:40:28;4.65;80.42
77056;SHT30;67471;44.918;8.614;2024-01-15T01:43:32;4.68;80.38
77056;SHT30;67471;44.918;8.614;2024-01-15T01:46:37;4.63;80.72
77056;SHT30;67471;44.918;8.614;2024-01-15T01:49:45;4.62;80.75
77056;SHT30;67471;44.918;8.614;2024-01-15T01:52:49;4.63;80.64
77056;SHT30;67471;44.918;8.614;2024-01-15T01:55:54;4.60;80.45
77056;SHT30;67471;44.918;8.614;2024-01-15T01:58:58;4.53;80.74
77056;SHT30;67471;44.918;8.614;2024-01-15T02:02:03;4.53;81.00
77056;SHT30;67471;44.918;8.614;2024-01-15T02:05:08;4.50;80.80
77056;SHT30;67471;44.918;8.614;2024-01-15T02:08:12;4.45;80.94
77056;SHT30;67471;44.918;8.614;2024-01-15T02:11:16;4.46;81.36
77056;SHT30;67471;44.918;8.614;2024-01-15T02:14:20;4.60;80.59
77056;SHT30;67471;44.918;8.614;2024-01-15T02:17:23;4.53;80.71
77056;SHT30;67471;44.918;8.614;2024-01-15T02:20:28;4.55;80.52
77056;SHT30;67471;44.918;8.614;2024-01-15T02:23:31;4.49;80.90
77056;SHT30;67471;44.918;8.614;2024-01-15T02:26:35;4.49;80.91
77056;SHT30;67471;44.918;8.614;2024-01-15T02:29:40;4.58;80.48
77056;SHT30;67471;44.918;8.614;2024-01-15T02:32:44;4.45;81.14
77056;SHT30;67471;44.918;8.614;2024-01-15T02:35:49;4.50;80.72
77056;SHT30;67471;44.918;8.614;2024-01-15T02:38:53;4.52;80.84
77056;SHT30;67471;44.918;8.614;2024-01-15T02:41:57;4.49;80.91
77056;SHT30;67471;44.918;8.614;2024-01-15T02:45:01;4.55;80.44
77056;SHT30;67471;44.918;8.614;2024-01-15T02:48:05;4.56;80.25
77056;SHT30;67471;44.918;8.614;2024-01-15T02:51:09;4.49;80.28
77056;SHT30;67471;44.918;8.614;2024-01-15T02:54:12;4.38;81.04
77056;SHT30;67471;44.918;8.614;2024-01-15T02:57:16;4.35;80.66
77056;SHT30;67471;44.918;8.614;2024-01-15T03:00:20;4.21;81.39
77056;SHT30;67471;44.918;8.614;2024-01-15T03:03:24;4.27;80.99
77056;SHT30;67471;44.918;8.614;2024-01-15T03:06:28;4.22;81.07
77056;SHT30;67471;44.918;8.614;2024-01-15T03:09:32;4.10;81.53
77056;SHT30;67471;44.918;8.614;2024-01-15T03:12:35;4.25;80.86
77056;SHT30;67471;44.918;8.614;2024-01-15T03:15:39;4.29;81.10
77056;SHT30;67471;44.918;8.614;2024-01-15T03:18:43;4.42;80.99
77056;SHT30;67471;44.918;8.614;2024-01-15T03:21:47;4.49;80.89
77056;SHT30;67471;44.918;8.614;2024-01-15T03:24:50;4.42;81.03
77056;SHT30;67471;44.918;8.614;2024-01-15T03:27:54;4.42;80.97
77056;SHT30;67471;44.918;8.614;2024-01-15T03:30:57;4.50;80.72
77056;SHT30;67471;44.918;8.614;2024-01-15T03:34:01;4.41;80.79
77056;SHT30;67471;44.918;8.614;2024-01-15T03:37:05;4.48;80.76
77056;SHT30;67471;44.918;8.614;2024-01-15T03:40:09;4.48;80.73
77056;SHT30;67471;44.918;8.614;2024-01-15T03:43:13;4.49;80.67
77056;SHT30;67471;44.918;8.614;2024-01-15T03:46:17;4.49;80.74
77056;SHT30;67471;44.918;8.614;2024-01-15T03:49:20;4.38;81.12
77056;SHT30;67471;44.918;8.614;2024-01-15T03:52:24;4.52;81.05
77056;SHT30;67471;44.918;8.614;2024-01-15T03:55:28;4.53;80.59
77056;SHT30;67471;44.918;8.614;2024-01-15T03:58:32;4.49;80.61
77056;SHT30;67471;44.918;8.614;2024-01-15T04:01:35;4.53;80.60
77056;SHT30;67471;44.918;8.614;2024-01-15T04:04:43;4.58;80.73
77056;SHT30;67471;44.918;8.614;2024-01-15T04:07:47;4.62;80.67
77056;SHT30;67471;44.918;8.614;2024-01-15T04:10:51;4.55;80.79
77056;SHT30;67471;44.918;8.614;2024-01-15T04:13:55;4.59;80.64
77056;SHT30;67471;44.918;8.614;2024-01-15T04:16:59;4.59;80.63
77056;SHT30;67471;44.918;8.614;2024-01-15T04:20:03;4.66;80.57
77056;SHT30;67471;44.918;8.614;2024-01-15T04:23:07;4.72;80.14
77056;SHT30;67471;44.918;8.614;2024-01-15T04:26:11;4.69;80.18
77056;SHT30;67471;44.918;8.614;2024-01-15T04:29:15;4.66;80.60
77056;SHT30;67471;44.918;8.614;2024-01-15T04:32:19;4.62;80.09
77056;SHT30;67471;44.918;8.614;2024-01-15T04:35:23;4.49;80.55
77056;SHT30;67471;44.918;8.614;2024-01-15T04:38:27;4.52;80.69
77056;SHT30;67471;44.918;8.614;2024-01-15T04:41:31;4.58;80.74
77056;SHT30;67471;44.918;8.614;2024-01-15T04:44:34;4.56;81.02
77056;SHT30;67471;44.918;8.614;2024-01-15T04:47:38;4.62;80.64
77056;SHT30;67471;44.918;8.614;2024-01-15T04:50:42;4.63;80.60
77056;SHT30;67471;44.918;8.614;2024-01-15T04:53:46;4.56;80.46
77056;SHT30;67471;44.918;8.614;2024-01-15T04:56:49;4.37;81.30
77056;SHT30;67471;44.918;8.614;2024-01-15T04:59:53;4.25;81.96
77056;SHT30;67471;44.918;8.614;2024-01-15T05:02:57;4.37;81.70
77056;SHT30;67471;44.918;8.614;2024-01-15T05:06:01;4.49;81.06
77056;SHT30;67471;44.918;8.614;2024-01-15T05:09:06;4.49;80.76
77056;SHT30;67471;44.918;8.614;2024-01-15T05:12:10;4.41;81.29
77056;SHT30;67471;44.918;8.614;2024-01-15T05:15:14;4.39;81.29
77056;SHT30;67471;44.918;8.614;2024-01-15T05:18:18;4.31;81.80
77056;SHT30;67471;44.918;8.614;2024-01-15T05:21:22;4.49;81.47
77056;SHT30;67471;44.918;8.614;2024-01-15T05:24:26;4.55;81.10
77056;SHT30;67471;44.918;8.614;2024-01-15T05:27:29;4.63;81.02
77056;SHT30;67471;44.918;8.614;2024-01-15T05:30:33;4.69;80.42
77056;SHT30;67471;44.918;8.614;2024-01-15T05:33:37;4.68;80.74
77056;SHT30;67471;44.918;8.614;2024-01-15T05:36:41;4.77;80.60
77056;SHT30;67471;44.918;8.614;2024-01-15T05:39:45;4.79;80.70
77056;SHT30;67471;44.918;8.614;2024-01-15T05:42:49;4.60;80.95
77056;SHT30;67471;44.918;8.614;2024-01-15T05:45:52;4.63;80.80
77056;SHT30;67471;44.918;8.614;2024-01-15T05:48:56;4.70;80.46
77056;SHT30;67471;44.918;8.614;2024-01-15T05:52:00;4.66;80.29
77056;SHT30;67471;44.918;8.614;2024-01-15T05:55:04;4.68;80.61
77056;SHT30;67471;44.918;8.614;2024-01-15T05:58:08;4.76;80.63
77056;SHT30;67471;44.918;8.614;2024-01-15T06:01:12;4.60;80.74
77056;SHT30;67471;44.918;8.614;2024-01-15T06:04:16;4.72;80.70
77056;SHT30;67471;44.918;8.614;2024-01-15T06:07:20;4.68;80.79
77056;SHT30;67471;44.918;8.614;2024-01-15T06:10:23;4.83;80.59
77056;SHT30;67471;44.918;8.614;2024-01-15T06:13:27;4.76;80.52
77056;SHT30;67471;44.918;8.614;2024-01-15T06:16:31;4.77;80.41
77056;SHT30;67471;44.918;8.614;2024-01-15T06:19:35;4.83;80.49
77056;SHT30;67471;44.918;8.614;2024-01-15T06:22:39;4.65;80.41
77056;SHT30;67471;44.918;8.614;2024-01-15T06:25:43;4.63;80.81
77056;SHT30;67471;44.918;8.614;2024-01-15T06:28:46;4.63;80.64
77056;SHT30;67471;44.918;8.614;2024-01-15T06:31:50;4.59;80.88
77056;SHT30;67471;44.918;8.614;2024-01-15T06:34:54;4.70;80.67
77056;SHT30;67471;44.918;8.614;2024-01-15T06:37:58;4.65;80.89
77056;SHT30;67471;44.918;8.614;2024-01-15T06:41:02;4.56;81.18
77056;SHT30;67471;44.918;8.614;2024-01-15T06:44:05;4.60;80.78
77056;SHT30;67471;44.918;8.614;2024-01-15T06:47:09;4.63;80.78
77056;SHT30;67471;44.918;8.614;2024-01-15T06:50:13;4.68;80.46
77056;SHT30;67471;44.918;8.614;2024-01-15T06:53:17;4.63;80.66
77056;SHT30;67471;44.918;8.614;2024-01-15T06:56:20;4.80;80.42
77056;SHT30;67471;44.918;8.614;2024-01-15T06:59:24;4.83;80.21
77056;SHT30;67471;44.918;8.614;2024-01-15T07:02:28;4.76;79.91
77056;SHT30;67471;44.918;8.614;2024-01-15T07:05:32;4.83;80.04
77056;SHT30;67471;44.918;8.614;2024-01-15T07:08:36;4.80;79.76
77056;SHT30;67471;44.918;8.614;2024-01-15T07:11:44;4.77;80.01
77056;SHT30;67471;44.918;8.614;2024-01-15T07:14:48;4.89;80.08
77056;SHT30;67471;44.918;8.614;2024-01-15T07:17:52;4.77;80.10
77056;SHT30;67471;44.918;8.614;2024-01-15T07:20:56;4.75;80.30
77056;SHT30;67471;44.918;8.614;2024-01-15T07:24:00;4.77;79.97
77056;SHT30;67471;44.918;8.614;2024-01-15T07:27:04;4.63;80.54
77056;SHT30;67471;44.918;8.614;2024-01-15T07:30:08;4.76;80.37
77056;SHT30;67471;44.918;8.614;2024-01-15T07:33:12;4.76;80.66
77056;SHT30;67471;44.918;8.614;2024-01-15T07:36:16;4.83;80.47
77056;SHT30;67471;44.918;8.614;2024-01-15T07:39:20;4.86;79.93
77056;SHT30;67471;44.918;8.614;2024-01-15T07:42:23;4.94;79.92
77056;SHT30;67471;44.918;8.614;2024-01-15T07:45:27;5.06;79.52
77056;SHT30;67471;44.918;8.614;2024-01-15T07:48:31;4.97;79.65
77056;SHT30;67471;44.918;8.614;2024-01-15T07:51:35;4.96;79.94
77056;SHT30;67471;44.918;8.614;2024-01-15T07:54:38;5.07;79.30
77056;SHT30;67471;44.918;8.614;2024-01-15T07:57:42;5.11;79.16
77056;SHT30;67471;44.918;8.614;2024-01-15T08:00:46;5.10;78.88
77056;SHT30;67471;44.918;8.614;2024-01-15T08:03:50;5.11;78.60
77056;SHT30;67471;44.918;8.614;2024-01-15T08:06:55;5.30;78.50
77056;SHT30;67471;44.918;8.614;2024-01-15T08:10:00;5.42;77.82
77056;SHT30;67471;44.918;8.614;2024-01-15T08:13:04;5.47;77.87
77056;SHT30;67471;44.918;8.614;2024-01-15T08:16:07;5.62;77.40
77056;SHT30;67471;44.918;8.614;2024-01-15T08:19:11;5.82;77.03
77056;SHT30;67471;44.918;8.614;2024-01-15T08:22:15;5.79;76.71
77056;SHT30;67471;44.918;8.614;2024-01-15T08:25:19;5.90;76.30
77056;SHT30;67471;44.918;8.614;2024-01-15T08:28:23;5.90;76.34
77056;SHT30;67471;44.918;8.614;2024-01-15T08:31:26;5.86;76.31
77056;SHT30;67471;44.918;8.614;2024-01-15T08:34:30;6.34;75.00
77056;SHT30;67471;44.918;8.614;2024-01-15T08:37:34;6.82;73.99
77056;SHT30;67471;44.918;8.614;2024-01-15T08:40:38;7.23;71.30
77056;SHT30;67471;44.918;8.614;2024-01-15T08:43:42;7.01;70.92
77056;SHT30;67471;44.918;8.614;2024-01-15T08:46:45;6.98;71.50
77056;SHT30;67471;44.918;8.614;2024-01-15T08:49:49;6.81;72.11
77056;SHT30;67471;44.918;8.614;2024-01-15T08:52:53;6.93;72.10
77056;SHT30;67471;44.918;8.614;2024-01-15T08:55:57;6.95;72.16
77056;SHT30;67471;44.918;8.614;2024-01-15T08:59:01;7.40;71.79
77056;SHT30;67471;44.918;8.614;2024-01-15T09:02:04;7.66;69.52
77056;SHT30;67471;44.918;8.614;2024-01-15T09:05:08;8.62;68.33
77056;SHT30;67471;44.918;8.614;2024-01-15T09:08:12;8.99;65.18
77056;SHT30;67471;44.918;8.614;2024-01-15T09:11:16;8.87;65.58
77056;SHT30;67471;44.918;8.614;2024-01-15T09:14:20;10.48;62.61
77056;SHT30;67471;44.918;8.614;2024-01-15T09:17:25;12.76;53.97
77056;SHT30;67471;44.918;8.614;2024-01-15T09:20:29;14.60;49.14
77056;SHT30;67471;44.918;8.614;2024-01-15T09:23:32;15.79;44.48
77056;SHT30;67471;44.918;8.614;2024-01-15T09:26:36;16.63;43.11
77056;SHT30;67471;44.918;8.614;2024-01-15T09:29:41;16.99;42.00
77056;SHT30;67471;44.918;8.614;2024-01-15T09:32:45;16.87;41.17
77056;SHT30;67471;44.918;8.614;2024-01-15T09:35:49;16.41;42.26
77056;SHT30;67471;44.918;8.614;2024-01-15T09:38:53;16.48;42.95
77056;SHT30;67471;44.918;8.614;2024-01-15T09:41:57;16.45;42.84
77056;SHT30;67471;44.918;8.614;2024-01-15T09:45:01;16.07;42.60
77056;SHT30;67471;44.918;8.614;2024-01-15T09:48:07;16.12;43.56
77056;SHT30;67471;44.918;8.614;2024-01-15T09:51:11;15.76;44.63
77056;SHT30;67471;44.918;8.614;2024-01-15T09:54:18;14.99;45.21
77056;SHT30;67471;44.918;8.614;2024-01-15T09:57:22;14.96;45.84
77056;SHT30;67471;44.918;8.614;2024-01-15T10:00:26;15.02;45.41
77056;SHT30;67471;44.918;8.614;2024-01-15T10:03:30;14.96;45.83
77056;SHT30;67471;44.918;8.614;2024-01-15T10:06:34;14.58;46.08
77056;SHT30;67471;44.918;8.614;2024-01-15T10:09:38;14.47;46.66
77056;SHT30;67471;44.918;8.614;2024-01-15T10:12:42;14.20;48.24
77056;SHT30;67471;44.918;8.614;2024-01-15T10:15:46;14.20;48.59
77056;SHT30;67471;44.918;8.614;2024-01-15T10:18:50;14.05;47.93
77056;SHT30;67471;44.918;8.614;2024-01-15T10:21:55;13.73;49.09
77056;SHT30;67471;44.918;8.614;2024-01-15T10:24:58;13.40;49.60
77056;SHT30;67471;44.918;8.614;2024-01-15T10:28:03;13.34;49.33
77056;SHT30;67471;44.918;8.614;2024-01-15T10:31:07;13.22;50.31
77056;SHT30;67471;44.918;8.614;2024-01-15T10:34:11;13.22;49.90
77056;SHT30;67471;44.918;8.614;2024-01-15T10:37:15;13.06;50.14
77056;SHT30;67471;44.918;8.614;2024-01-15T10:40:19;12.99;50.35
77056;SHT30;67471;44.918;8.614;2024-01-15T10:43:23;13.12;50.02
77056;SHT30;67471;44.918;8.614;2024-01-15T10:46:27;13.20;49.79
77056;SHT30;67471;44.918;8.614;2024-01-15T10:49:31;13.31;49.47
77056;SHT30;67471;44.918;8.614;2024-01-15T10:52:37;13.04;50.14
77056;SHT30;67471;44.918;8.614;2024-01-15T10:55:42;12.84;50.89
77056;SHT30;67471;44.918;8.614;2024-01-15T10:58:46;12.70;51.52
77056;SHT30;67471;44.918;8.614;2024-01-15T11:01:51;12.39;52.39
77056;SHT30;67471;44.918;8.614;2024-01-15T11:04:58;12.26;53.38
77056;SHT30;67471;44.918;8.614;2024-01-15T11:08:05;12.28;52.99
77056;SHT30;67471;44.918;8.614;2024-01-15T11:11:09;12.36;53.21
77056;SHT30;67471;44.918;8.614;2024-01-15T11:14:41;12.45;53.05
77056;SHT30;67471;44.918;8.614;2024-01-15T11:18:01;12.35;53.19
77056;SHT30;67471;44.918;8.614;2024-01-15T11:24:42;12.49;53.01
77056;SHT30;67471;44.918;8.614;2024-01-15T11:27:51;12.67;52.56
77056;SHT30;67471;44.918;8.614;2024-01-15T11:30:55;12.43;52.84
77056;SHT30;67471;44.918;8.614;2024-01-15T11:33:59;12.76;53.15
77056;SHT30;67471;44.918;8.614;2024-01-15T11:37:03;12.73;52.72
77056;SHT30;67471;44.918;8.614;2024-01-15T11:40:07;12.77;53.36
77056;SHT30;67471;44.918;8.614;2024-01-15T11:43:14;13.04;52.02
77056;SHT30;67471;44.918;8.614;2024-01-15T11:46:20;13.03;52.38
77056;SHT30;67471;44.918;8.614;2024-01-15T11:53:01;12.86;52.31
77056;SHT30;67471;44.918;8.614;2024-01-15T11:56:13;12.94;53.23
77056;SHT30;67471;44.918;8.614;2024-01-15T11:59:18;13.01;53.33
77056;SHT30;67471;44.918;8.614;2024-01-15T12:02:22;12.86;53.91
77056;SHT30;67471;44.918;8.614;2024-01-15T12:05:25;12.80;53.90
77056;SHT30;67471;44.918;8.614;2024-01-15T12:08:29;12.64;53.96
77056;SHT30;67471;44.918;8.614;2024-01-15T12:11:35;12.79;53.37
77056;SHT30;67471;44.918;8.614;2024-01-15T12:14:39;12.77;53.55
77056;SHT30;67471;44.918;8.614;2024-01-15T12:17:45;12.75;52.39
77056;SHT30;67471;44.918;8.614;2024-01-15T12:20:49;12.42;53.41
77056;SHT30;67471;44.918;8.614;2024-01-15T12:23:52;12.72;52.42
77056;SHT30;67471;44.918;8.614;2024-01-15T12:26:58;12.79;52.44
77056;SHT30;67471;44.918;8.614;2024-01-15T12:30:02;12.28;52.87
77056;SHT30;67471;44.918;8.614;2024-01-15T12:33:07;12.25;53.59
77056;SHT30;67471;44.918;8.614;2024-01-15T12:36:13;12.32;53.19
77056;SHT30;67471;44.918;8.614;2024-01-15T12:39:16;12.48;52.74
77056;SHT30;67471;44.918;8.614;2024-01-15T12:42:21;12.31;52.81
77056;SHT30;67471;44.918;8.614;2024-01-15T12:45:25;12.48;53.06
77056;SHT30;67471;44.918;8.614;2024-01-15T12:48:29;12.64;52.96
77056;SHT30;67471;44.918;8.614;2024-01-15T12:51:34;12.38;53.85
77056;SHT30;67471;44.918;8.614;2024-01-15T12:54:38;12.38;53.66
77056;SHT30;67471;44.918;8.614;2024-01-15T12:57:41;12.45;53.82
77056;SHT30;67471;44.918;8.614;2024-01-15T13:00:45;12.52;53.75
77056;SHT30;67471;44.918;8.614;2024-01-15T13:03:50;12.63;53.71
77056;SHT30;67471;44.918;8.614;2024-01-15T13:06:54;12.57;53.55
77056;SHT30;67471;44.918;8.614;2024-01-15T13:09:58;12.43;53.77
77056;SHT30;67471;44.918;8.614;2024-01-15T13:13:02;12.19;54.30
77056;SHT30;67471;44.918;8.614;2024-01-15T13:16:06;12.42;54.03
77056;SHT30;67471;44.918;8.614;2024-01-15T13:19:11;12.35;54.42
77056;SHT30;67471;44.918;8.614;2024-01-15T13:22:16;12.46;54.60
77056;SHT30;67471;44.918;8.614;2024-01-15T13:25:20;12.45;54.71
77056;SHT30;67471;44.918;8.614;2024-01-15T13:28:24;11.78;56.13
77056;SHT30;67471;44.918;8.614;2024-01-15T13:31:28;11.71;56.83
77056;SHT30;67471;44.918;8.614;2024-01-15T13:34:31;11.66;57.56
77056;SHT30;67471;44.918;8.614;2024-01-15T13:37:35;11.49;58.37
77056;SHT30;67471;44.918;8.614;2024-01-15T13:40:40;11.63;58.08
77056;SHT30;67471;44.918;8.614;2024-01-15T13:43:55;12.01;57.53
77056;SHT30;67471;44.918;8.614;2024-01-15T13:46:58;12.06;57.29
77056;SHT30;67471;44.918;8.614;2024-01-15T13:50:02;12.06;57.10
77056;SHT30;67471;44.918;8.614;2024-01-15T13:53:06;11.85;58.05
77056;SHT30;67471;44.918;8.614;2024-01-15T13:56:12;11.98;57.89
77056;SHT30;67471;44.918;8.614;2024-01-15T13:59:16;12.10;57.63
77056;SHT30;67471;44.918;8.614;2024-01-15T14:02:20;12.15;57.55
77056;SHT30;67471;44.918;8.614;2024-01-15T14:05:24;12.06;58.04
77056;SHT30;67471;44.918;8.614;2024-01-15T14:08:27;12.04;58.28
77056;SHT30;67471;44.918;8.614;2024-01-15T14:11:31;11.74;59.63
77056;SHT30;67471;44.918;8.614;2024-01-15T14:14:35;11.74;59.51
77056;SHT30;67471;44.918;8.614;2024-01-15T14:17:39;11.66;59.92
77056;SHT30;67471;44.918;8.614;2024-01-15T14:20:43;11.56;60.56
77056;SHT30;67471;44.918;8.614;2024-01-15T14:23:47;11.32;61.24
77056;SHT30;67471;44.918;8.614;2024-01-15T14:26:51;11.40;61.41
77056;SHT30;67471;44.918;8.614;2024-01-15T14:29:54;11.57;61.30
77056;SHT30;67471;44.918;8.614;2024-01-15T14:32:58;11.36;61.60
77056;SHT30;67471;44.918;8.614;2024-01-15T14:36:02;11.30;61.35
77056;SHT30;67471;44.918;8.614;2024-01-15T14:39:06;10.72;63.22
77056;SHT30;67471;44.918;8.614;2024-01-15T14:42:10;10.68;63.70
77056;SHT30;67471;44.918;8.614;2024-01-15T14:45:14;10.33;65.32
77056;SHT30;67471;44.918;8.614;2024-01-15T14:48:17;10.27;65.55
77056;SHT30;67471;44.918;8.614;2024-01-15T14:51:21;10.20;65.67
77056;SHT30;67471;44.918;8.614;2024-01-15T14:54:25;10.54;64.73
77056;SHT30;67471;44.918;8.614;2024-01-15T14:57:29;10.76;64.39
77056;SHT30;67471;44.918;8.614;2024-01-15T15:00:33;10.88;64.22
77056;SHT30;67471;44.918;8.614;2024-01-15T15:03:37;11.01;63.50
77056;SHT30;67471;44.918;8.614;2024-01-15T15:06:41;11.02;63.30
77056;SHT30;67471;44.918;8.614;2024-01-15T15:09:44;10.96;63.15
77056;SHT30;67471;44.918;8.614;2024-01-15T15:12:48;10.81;63.97
77056;SHT30;67471;44.918;8.614;2024-01-15T15:15:53;10.72;64.14
77056;SHT30;67471;44.918;8.614;2024-01-15T15:18:59;10.69;64.37
77056;SHT30;67471;44.918;8.614;2024-01-15T15:22:03;10.65;64.36
77056;SHT30;67471;44.918;8.614;2024-01-15T15:25:07;10.61;64.19
77056;SHT30;67471;44.918;8.614;2024-01-15T15:28:12;10.58;64.38
77056;SHT30;67471;44.918;8.614;2024-01-15T15:31:15;10.52;64.38
77056;SHT30;67471;44.918;8.614;2024-01-15T15:34:19;10.29;64.93
77056;SHT30;67471;44.918;8.614;2024-01-15T15:37:23;10.16;65.57
77056;SHT30;67471;44.918;8.614;2024-01-15T15:40:27;10.10;65.43
77056;SHT30;67471;44.918;8.614;2024-01-15T15:43:31;10.00;65.44
77056;SHT30;67471;44.918;8.614;2024-01-15T15:46:34;9.72;66.23
77056;SHT30;67471;44.918;8.614;2024-01-15T15:49:38;9.85;65.90
77056;SHT30;67471;44.918;8.614;2024-01-15T15:52:42;9.52;67.09
77056;SHT30;67471;44.918;8.614;2024-01-15T15:55:46;9.41;66.99
77056;SHT30;67471;44.918;8.614;2024-01-15T15:58:50;9.01;68.04
77056;SHT30;67471;44.918;8.614;2024-01-15T16:01:54;8.87;69.01
77056;SHT30;67471;44.918;8.614;2024-01-15T16:04:57;8.90;68.58
77056;SHT30;67471;44.918;8.614;2024-01-15T16:08:01;8.72;69.10
77056;SHT30;67471;44.918;8.614;2024-01-15T16:11:06;8.93;68.47
77056;SHT30;67471;44.918;8.614;2024-01-15T16:14:10;8.91;68.43
77056;SHT30;67471;44.918;8.614;2024-01-15T16:17:14;9.00;68.35
77056;SHT30;67471;44.918;8.614;2024-01-15T16:20:18;9.03;67.95
77056;SHT30;67471;44.918;8.614;2024-01-15T16:23:23;9.00;68.08
77056;SHT30;67471;44.918;8.614;2024-01-15T16:26:27;8.77;69.16
77056;SHT30;67471;44.918;8.614;2024-01-15T16:29:31;8.91;68.93
77056;SHT30;67471;44.918;8.614;2024-01-15T16:32:35;9.04;68.30
77056;SHT30;67471;44.918;8.614;2024-01-15T16:35:39;9.03;68.50
77056;SHT30;67471;44.918;8.614;2024-01-15T16:38:42;9.05;68.44
77056;SHT30;67471;44.918;8.614;2024-01-15T16:41:46;8.96;68.71
77056;SHT30;67471;44.918;8.614;2024-01-15T16:44:50;9.07;68.37
77056;SHT30;67471;44.918;8.614;2024-01-15T16:47:54;9.03;68.54
77056;SHT30;67471;44.918;8.614;2024-01-15T16:50:57;8.97;68.70
77056;SHT30;67471;44.918;8.614;2024-01-15T16:54:01;8.85;68.70
77056;SHT30;67471;44.918;8.614;2024-01-15T16:57:05;8.81;68.89
77056;SHT30;67471;44.918;8.614;2024-01-15T17:00:09;8.74;69.43
77056;SHT30;67471;44.918;8.614;2024-01-15T17:03:14;8.74;69.50
77056;SHT30;67471;44.918;8.614;2024-01-15T17:06:18;8.73;69.32
77056;SHT30;67471;44.918;8.614;2024-01-15T17:09:22;8.62;69.81
77056;SHT30;67471;44.918;8.614;2024-01-15T17:12:25;8.64;69.88
77056;SHT30;67471;44.918;8.614;2024-01-15T17:15:30;8.63;69.59
77056;SHT30;67471;44.918;8.614;2024-01-15T17:18:34;8.50;70.06
77056;SHT30;67471;44.918;8.614;2024-01-15T17:21:39;8.54;69.86
77056;SHT30;67471;44.918;8.614;2024-01-15T17:24:43;8.24;70.60
77056;SHT30;67471;44.918;8.614;2024-01-15T17:27:46;8.24;71.18
77056;SHT30;67471;44.918;8.614;2024-01-15T17:30:50;8.24;70.82
77056;SHT30;67471;44.918;8.614;2024-01-15T17:33:54;8.26;70.55
77056;SHT30;67471;44.918;8.614;2024-01-15T17:36:58;8.15;71.27
77056;SHT30;67471;44.918;8.614;2024-01-15T17:40:01;8.09;71.44
77056;SHT30;67471;44.918;8.614;2024-01-15T17:43:07;7.71;72.98
77056;SHT30;67471;44.918;8.614;2024-01-15T17:46:11;7.94;71.93
77056;SHT30;67471;44.918;8.614;2024-01-15T17:49:17;7.99;71.70
77056;SHT30;67471;44.918;8.614;2024-01-15T17:52:21;8.03;71.68
77056;SHT30;67471;44.918;8.614;2024-01-15T17:55:25;8.02;71.89
77056;SHT30;67471;44.918;8.614;2024-01-15T17:58:29;7.95;71.98
77056;SHT30;67471;44.918;8.614;2024-01-15T18:01:33;7.97;71.78
77056;SHT30;67471;44.918;8.614;2024-01-15T18:04:39;7.98;71.80
77056;SHT30;67471;44.918;8.614;2024-01-15T18:07:43;7.95;72.04
77056;SHT30;67471;44.918;8.614;2024-01-15T18:10:47;8.01;71.78
77056;SHT30;67471;44.918;8.614;2024-01-15T18:13:51;7.91;71.98
77056;SHT30;67471;44.918;8.614;2024-01-15T18:16:55;7.92;71.98
77056;SHT30;67471;44.918;8.614;2024-01-15T18:19:59;7.90;71.96
77056;SHT30;67471;44.918;8.614;2024-01-15T18:23:03;7.88;72.05
77056;SHT30;67471;44.918;8.614;2024-01-15T18:26:07;7.81;72.27
77056;SHT30;67471;44.918;8.614;2024-01-15T18:29:10;7.84;72.07
77056;SHT30;67471;44.918;8.614;2024-01-15T18:32:14;7.88;71.67
77056;SHT30;67471;44.918;8.614;2024-01-15T18:35:18;7.70;71.99
77056;SHT30;67471;44.918;8.614;2024-01-15T18:38:22;7.63;72.32
77056;SHT30;67471;44.918;8.614;2024-01-15T18:41:26;7.61;72.31
77056;SHT30;67471;44.918;8.614;2024-01-15T18:44:30;7.40;72.92
77056;SHT30;67471;44.918;8.614;2024-01-15T18:47:34;7.36;73.19
77056;SHT30;67471;44.918;8.614;2024-01-15T18:50:37;7.37;73.05
77056;SHT30;67471;44.918;8.614;2024-01-15T18:53:43;7.46;72.87
77056;SHT30;67471;44.918;8.614;2024-01-15T18:56:46;7.37;72.76
77056;SHT30;67471;44.918;8.614;2024-01-15T18:59:50;7.30;72.81
77056;SHT30;67471;44.918;8.614;2024-01-15T19:02:54;7.08;73.70
77056;SHT30;67471;44.918;8.614;2024-01-15T19:06:01;7.09;73.46
77056;SHT30;67471;44.918;8.614;2024-01-15T19:09:05;7.13;73.30
77056;SHT30;67471;44.918;8.614;2024-01-15T19:12:09;7.13;73.44
77056;SHT30;67471;44.918;8.614;2024-01-15T19:15:13;6.98;73.77
77056;SHT30;67471;44.918;8.614;2024-01-15T19:18:17;7.02;73.76
77056;SHT30;67471;44.918;8.614;2024-01-15T19:21:21;6.92;73.88
77056;SHT30;67471;44.918;8.614;2024-01-15T19:24:25;6.98;73.89
77056;SHT30;67471;44.918;8.614;2024-01-15T19:27:28;7.01;74.00
77056;SHT30;67471;44.918;8.614;2024-01-15T19:30:32;7.05;74.32
77056;SHT30;67471;44.918;8.614;2024-01-15T19:33:36;6.98;74.75
77056;SHT30;67471;44.918;8.614;2024-01-15T19:36:39;6.96;74.42
77056;SHT30;67471;44.918;8.614;2024-01-15T19:39:43;6.81;75.00
77056;SHT30;67471;44.918;8.614;2024-01-15T19:42:47;6.82;74.50